Farley, Massachusetts
Current Conditions -  °F | °C
As of 9:52 PM on Saturday 24 Jan 2015 (Local Time) from KORE Reporting Station
Scattered Clouds Scattered Clouds  
Wind Chill: 22°   Ceiling: Unl
Heat Index: 30°   Visibility: 10mi
Dew Point: 23°   Wind: 9mph
Humidity: 75%   Direction: 280°W
Pressure: 29.3"   Gusts: NA
Location:  42.6125°N, 72.4148°W
Report Text: KORE 250252Z AUTO 28008KT 10SM SCT070 M01/M05 A2930 RMK AO2 SLP929 T10111050 53018
Loading
Personal Weather Stations






























Interactive Weather Map New forecast layout! Learn more

10-Day Weather Forecast

Advertisements
Track Severe Weather on mobile